Time;durP1;ratioP1;P1;durP2;ratioP2;P2;SDS_P1;SDS_P2;PMS_P1;PMS_P2;Temp;Humidity;BMP_temperature;BMP_pressure;BME280_temperature;BME280_humidity;BME280_pressure;Samples;Min_cycle;Max_cycle;Signal;HPM_P1;HPM_P2
2022/07/13 00:01:30;;;;;;;4.40;3.20;;;13.80;64.10;;;;;;5049039;28;20234;-54
2022/07/13 00:04:01;;;;;;;4.20;2.80;;;13.80;64.10;;;;;;5049324;28;20614;-57
2022/07/13 00:06:31;;;;;;;4.65;3.05;;;13.80;64.00;;;;;;5049181;28;20219;-60
2022/07/13 00:09:04;;;;;;;3.63;2.83;;;13.80;64.00;;;;;;5048913;28;20230;-50
2022/07/13 00:11:35;;;;;;;4.78;2.80;;;13.90;64.10;;;;;;5048684;28;20200;-59
2022/07/13 00:14:05;;;;;;;6.38;3.38;;;13.90;64.40;;;;;;5049057;28;20195;-59
2022/07/13 00:16:36;;;;;;;4.05;3.08;;;13.90;64.90;;;;;;5048737;28;20200;-48
2022/07/13 00:19:09;;;;;;;5.68;3.22;;;13.90;65.00;;;;;;5049059;28;20220;-53
2022/07/13 00:21:40;;;;;;;3.95;2.90;;;14.00;65.00;;;;;;5049269;28;20231;-59
2022/07/13 00:24:14;;;;;;;3.80;3.00;;;14.00;64.80;;;;;;5048752;28;20208;-56
2022/07/13 00:26:45;;;;;;;3.35;2.63;;;14.00;64.70;;;;;;5051876;28;20198;-59
2022/07/13 00:29:15;;;;;;;4.65;3.20;;;14.00;64.60;;;;;;5052734;28;20396;-56
2022/07/13 00:31:46;;;;;;;4.75;3.10;;;14.10;64.60;;;;;;5052243;28;20226;-44
2022/07/13 00:34:17;;;;;;;3.83;3.08;;;14.10;64.50;;;;;;5052169;28;20260;-52
2022/07/13 00:36:48;;;;;;;5.35;3.28;;;14.10;64.40;;;;;;5052737;28;20195;-49
2022/07/13 00:39:20;;;;;;;4.18;3.03;;;14.20;64.50;;;;;;5052259;28;20250;-62
2022/07/13 00:41:52;;;;;;;6.57;2.55;;;14.20;64.50;;;;;;5052545;28;20577;-51
2022/07/13 00:44:22;;;;;;;4.13;2.95;;;14.20;64.50;;;;;;5052287;28;20211;-50
2022/07/13 00:46:57;;;;;;;3.53;2.70;;;14.20;64.50;;;;;;5052056;28;20200;-58
2022/07/13 00:49:28;;;;;;;4.65;3.05;;;14.30;64.60;;;;;;5051711;28;20585;-60
2022/07/13 00:51:59;;;;;;;4.40;2.75;;;14.30;64.50;;;;;;5052489;28;20550;-61
2022/07/13 00:54:33;;;;;;;5.10;3.03;;;14.30;64.50;;;;;;5051938;28;20199;-61
2022/07/13 00:57:04;;;;;;;4.90;3.00;;;14.30;64.30;;;;;;5051744;28;20416;-59
2022/07/13 00:59:34;;;;;;;4.82;3.08;;;14.40;64.40;;;;;;5051429;28;20223;-51
2022/07/13 01:02:05;;;;;;;3.85;3.00;;;14.40;64.40;;;;;;5051628;28;20702;-49
2022/07/13 01:04:36;;;;;;;6.55;3.22;;;14.40;64.30;;;;;;5051629;28;20212;-58
2022/07/13 01:07:07;;;;;;;5.05;3.33;;;14.50;64.40;;;;;;5052036;28;20207;-52
2022/07/13 01:09:41;;;;;;;5.22;3.40;;;14.50;64.30;;;;;;5051444;28;20246;-58
2022/07/13 01:12:11;;;;;;;4.72;3.13;;;14.50;64.40;;;;;;5051978;28;20651;-51
2022/07/13 01:14:43;;;;;;;5.65;3.47;;;14.60;64.40;;;;;;5051694;28;20204;-51
2022/07/13 01:17:14;;;;;;;7.07;3.40;;;14.60;64.40;;;;;;5051829;28;20206;-47
2022/07/13 01:19:45;;;;;;;4.75;3.13;;;14.60;64.40;;;;;;5052266;28;20227;-53
2022/07/13 01:22:20;;;;;;;4.28;3.05;;;14.60;64.30;;;;;;5051478;28;20593;-58
2022/07/13 01:24:54;;;;;;;4.53;3.25;;;14.70;64.30;;;;;;5050804;28;20199;-52
2022/07/13 01:27:25;;;;;;;5.13;3.10;;;14.70;64.20;;;;;;5051058;28;20203;-51
2022/07/13 01:29:56;;;;;;;5.57;3.53;;;14.80;64.20;;;;;;5051073;28;20215;-45
2022/07/13 01:32:26;;;;;;;5.28;3.42;;;14.80;64.20;;;;;;5050414;28;20678;-46
2022/07/13 01:34:57;;;;;;;5.97;3.30;;;14.80;64.20;;;;;;5050032;28;20555;-49
2022/07/13 01:37:28;;;;;;;4.38;2.97;;;14.90;64.20;;;;;;5051137;28;20203;-54
2022/07/13 01:40:00;;;;;;;6.00;3.30;;;14.90;64.30;;;;;;5051161;28;20207;-50
2022/07/13 01:42:31;;;;;;;6.05;3.20;;;15.00;64.30;;;;;;5050826;28;20532;-55
2022/07/13 01:45:03;;;;;;;6.85;3.42;;;15.00;64.30;;;;;;5051098;28;20206;-50
2022/07/13 01:47:33;;;;;;;5.85;3.17;;;15.00;64.30;;;;;;5050712;28;20208;-48
2022/07/13 01:50:04;;;;;;;4.45;3.13;;;15.10;64.40;;;;;;5050640;28;20223;-53
2022/07/13 01:52:35;;;;;;;4.95;3.38;;;15.10;64.30;;;;;;5050372;28;20697;-53
2022/07/13 01:55:09;;;;;;;5.63;3.00;;;15.10;64.20;;;;;;5050433;28;20202;-45
2022/07/13 01:57:40;;;;;;;5.32;3.28;;;15.20;64.20;;;;;;5050719;28;20203;-51
2022/07/13 02:00:12;;;;;;;5.40;3.50;;;15.20;64.20;;;;;;5050985;28;20219;-54
2022/07/13 02:02:44;;;;;;;4.80;3.17;;;15.20;64.90;;;;;;5050999;28;20226;-46
2022/07/13 02:05:15;;;;;;;6.15;3.60;;;15.30;64.10;;;;;;5050977;28;20203;-54
2022/07/13 02:07:46;;;;;;;5.18;3.17;;;15.30;64.20;;;;;;5050526;28;20211;-57
2022/07/13 02:10:18;;;;;;;4.70;3.00;;;15.40;64.30;;;;;;5050173;28;20777;-58
2022/07/13 02:12:49;;;;;;;5.13;2.90;;;15.40;64.30;;;;;;5050617;28;20206;-50
2022/07/13 02:15:20;;;;;;;5.68;3.25;;;15.40;64.30;;;;;;5050653;28;20207;-60
2022/07/13 02:17:50;;;;;;;5.40;2.80;;;15.50;64.40;;;;;;5050669;28;20655;-53
2022/07/13 02:20:21;;;;;;;4.43;3.20;;;15.50;64.40;;;;;;5050743;28;20691;-51
2022/07/13 02:22:52;;;;;;;5.18;2.80;;;15.50;64.30;;;;;;5050266;28;20709;-46
2022/07/13 02:25:24;;;;;;;5.18;3.42;;;15.50;64.20;;;;;;5050137;28;20199;-55
2022/07/13 02:27:55;;;;;;;5.65;3.03;;;15.60;64.20;;;;;;5049644;28;20195;-50
2022/07/13 02:30:26;;;;;;;5.60;3.28;;;15.60;64.10;;;;;;5049657;28;20220;-51
2022/07/13 02:32:56;;;;;;;5.07;3.20;;;15.60;64.10;;;;;;5050074;28;20196;-54
2022/07/13 02:35:27;;;;;;;5.85;3.38;;;15.70;64.20;;;;;;5049944;28;20199;-60
2022/07/13 02:37:58;;;;;;;6.20;3.08;;;15.70;64.20;;;;;;5050099;28;20198;-46
2022/07/13 02:40:30;;;;;;;4.80;3.00;;;15.70;64.20;;;;;;5049663;28;20224;-54
2022/07/13 02:43:01;;;;;;;6.38;3.10;;;15.80;64.30;;;;;;5049780;28;20694;-47
2022/07/13 02:45:32;;;;;;;4.13;3.17;;;15.80;64.40;;;;;;5049854;28;20215;-50
2022/07/13 02:48:02;;;;;;;5.60;2.97;;;15.80;64.30;;;;;;5049015;28;20227;-45
2022/07/13 02:50:33;;;;;;;4.97;2.83;;;15.80;64.30;;;;;;5049499;28;20218;-48
2022/07/13 02:53:04;;;;;;;5.25;3.15;;;15.80;64.20;;;;;;5050189;28;20195;-55
2022/07/13 02:55:36;;;;;;;4.68;2.95;;;15.80;64.10;;;;;;5049618;28;20195;-48
2022/07/13 02:58:07;;;;;;;4.65;2.80;;;15.90;64.10;;;;;;5049832;28;20211;-61
2022/07/13 03:00:38;;;;;;;4.78;3.03;;;15.90;64.00;;;;;;5050172;28;20303;-52
2022/07/13 03:03:09;;;;;;;4.43;2.90;;;15.90;64.00;;;;;;5049982;28;20223;-57
2022/07/13 03:05:39;;;;;;;4.47;2.88;;;16.00;64.00;;;;;;5049725;28;20217;-59
2022/07/13 03:08:10;;;;;;;4.97;3.03;;;16.00;64.10;;;;;;5049558;28;20203;-59
2022/07/13 03:10:43;;;;;;;4.00;3.03;;;16.00;64.00;;;;;;5049472;28;20583;-50
2022/07/13 03:13:13;;;;;;;4.32;2.80;;;16.10;64.00;;;;;;5049351;28;20199;-58
2022/07/13 03:15:44;;;;;;;3.92;2.70;;;16.10;64.00;;;;;;5049553;28;20206;-50
2022/07/13 03:18:15;;;;;;;4.07;2.75;;;16.10;63.90;;;;;;5049674;28;20207;-50
2022/07/13 03:20:45;;;;;;;4.00;2.80;;;16.10;64.00;;;;;;5049859;28;20226;-53
2022/07/13 03:23:16;;;;;;;4.47;2.80;;;16.10;63.90;;;;;;5050137;28;20223;-48
2022/07/13 03:25:49;;;;;;;3.22;2.45;;;16.10;63.90;;;;;;5048750;28;20199;-58
2022/07/13 03:28:19;;;;;;;6.32;3.28;;;16.20;64.00;;;;;;5047762;28;20191;-48
2022/07/13 03:30:50;;;;;;;4.95;3.20;;;16.20;63.90;;;;;;5028265;28;20224;-60
2022/07/13 03:33:21;;;;;;;5.93;3.17;;;16.20;63.90;;;;;;5032230;28;20192;-61
2022/07/13 03:35:52;;;;;;;5.15;3.00;;;16.30;64.00;;;;;;5040664;28;20196;-57
2022/07/13 03:38:22;;;;;;;4.05;2.72;;;16.20;63.90;;;;;;5049164;28;20206;-56
2022/07/13 03:40:55;;;;;;;5.05;2.95;;;16.30;64.00;;;;;;5048868;28;20706;-51
2022/07/13 03:43:25;;;;;;;4.93;2.80;;;16.30;63.90;;;;;;5048254;28;20235;-53
2022/07/13 03:45:56;;;;;;;5.47;3.00;;;16.30;63.90;;;;;;5049326;28;20210;-61
2022/07/13 03:48:27;;;;;;;4.85;3.00;;;16.30;63.90;;;;;;5049217;28;20191;-61
2022/07/13 03:50:57;;;;;;;4.95;3.10;;;16.30;63.90;;;;;;5049283;28;20206;-57
2022/07/13 03:53:28;;;;;;;4.47;2.97;;;16.30;63.90;;;;;;5049049;28;20651;-60
2022/07/13 03:56:01;;;;;;;4.03;2.97;;;16.30;63.90;;;;;;5049035;28;20281;-52
2022/07/13 03:58:31;;;;;;;4.35;3.17;;;16.30;63.80;;;;;;5049056;28;20570;-58
2022/07/13 04:01:02;;;;;;;4.05;3.05;;;16.30;63.70;;;;;;5050802;28;20709;-47
2022/07/13 04:03:33;;;;;;;5.50;3.25;;;16.30;63.70;;;;;;5052519;28;20231;-62
2022/07/13 04:06:03;;;;;;;5.25;3.20;;;16.40;63.80;;;;;;5052925;28;20202;-61
2022/07/13 04:08:34;;;;;;;4.35;2.92;;;16.40;63.70;;;;;;5052099;28;20192;-57
2022/07/13 04:11:07;;;;;;;5.97;3.60;;;16.40;63.70;;;;;;5051814;28;20191;-60
2022/07/13 04:13:38;;;;;;;4.15;2.78;;;16.40;63.70;;;;;;5052933;28;20633;-55
2022/07/13 04:16:09;;;;;;;5.88;3.55;;;16.40;63.70;;;;;;5053207;28;20614;-58
2022/07/13 04:18:39;;;;;;;5.88;3.50;;;16.30;63.70;;;;;;5052731;28;20218;-53
2022/07/13 04:21:10;;;;;;;6.10;3.35;;;16.40;63.80;;;;;;5053486;28;20237;-50
2022/07/13 04:23:41;;;;;;;7.32;4.05;;;16.40;63.80;;;;;;5052235;28;20238;-58
2022/07/13 04:26:13;;;;;;;5.80;3.58;;;16.40;63.70;;;;;;5052523;28;20192;-59
2022/07/13 04:28:44;;;;;;;5.80;3.42;;;16.40;63.70;;;;;;5052597;28;20200;-58
2022/07/13 04:31:15;;;;;;;6.75;3.53;;;16.40;63.70;;;;;;5052536;28;20212;-56
2022/07/13 04:33:45;;;;;;;6.30;3.67;;;16.40;63.70;;;;;;5052219;28;20214;-56
2022/07/13 04:36:16;;;;;;;5.53;3.00;;;16.40;63.60;;;;;;5052389;28;20204;-55
2022/07/13 04:38:47;;;;;;;5.80;3.20;;;16.40;63.70;;;;;;5051991;28;20550;-59
2022/07/13 04:41:19;;;;;;;7.55;3.45;;;16.40;63.60;;;;;;5052017;28;20231;-54
2022/07/13 04:43:50;;;;;;;5.88;3.70;;;16.40;63.70;;;;;;5052063;28;20227;-49
2022/07/13 04:46:24;;;;;;;7.70;4.63;;;16.40;63.70;;;;;;5052147;28;20256;-61
2022/07/13 04:48:55;;;;;;;5.40;3.75;;;16.40;63.70;;;;;;5051922;28;20226;-61
2022/07/13 04:51:26;;;;;;;5.95;4.13;;;16.40;63.70;;;;;;5052058;28;20199;-43
2022/07/13 04:53:57;;;;;;;6.25;4.18;;;16.40;63.70;;;;;;5052322;28;20223;-50
2022/07/13 04:56:29;;;;;;;8.52;4.22;;;16.40;63.80;;;;;;5051871;28;20199;-53
2022/07/13 04:59:00;;;;;;;8.23;4.43;;;16.40;63.70;;;;;;5052208;28;20220;-44
2022/07/13 05:01:31;;;;;;;8.38;4.28;;;16.40;63.70;;;;;;5052081;28;20195;-52
2022/07/13 05:04:02;;;;;;;6.25;4.18;;;16.40;63.70;;;;;;5051984;28;20223;-55
2022/07/13 05:06:32;;;;;;;7.65;4.20;;;16.40;63.70;;;;;;5052000;28;20207;-52
2022/07/13 05:09:03;;;;;;;7.85;4.43;;;16.40;63.70;;;;;;5051783;28;20226;-49
2022/07/13 05:11:36;;;;;;;7.47;4.60;;;16.40;63.70;;;;;;5050799;28;20196;-53
2022/07/13 05:14:06;;;;;;;7.03;4.68;;;16.40;63.70;;;;;;5051630;28;20218;-47
2022/07/13 05:16:37;;;;;;;5.80;4.30;;;16.40;63.70;;;;;;5051877;28;20208;-51
2022/07/13 05:19:08;;;;;;;7.97;5.22;;;16.40;63.80;;;;;;5051975;28;20699;-57
2022/07/13 05:21:39;;;;;;;8.15;4.95;;;16.40;63.80;;;;;;5052452;28;20199;-55
2022/07/13 05:24:09;;;;;;;7.32;5.10;;;16.40;63.80;;;;;;5051566;28;20238;-52
2022/07/13 05:26:42;;;;;;;6.43;4.63;;;16.40;63.70;;;;;;5050930;28;20206;-49
2022/07/13 05:29:13;;;;;;;6.93;4.85;;;16.40;63.70;;;;;;5051110;28;20211;-47
2022/07/13 05:31:43;;;;;;;8.13;4.95;;;16.40;63.70;;;;;;5051437;28;20605;-56
2022/07/13 05:34:14;;;;;;;7.55;4.90;;;16.40;63.70;;;;;;5051082;28;20196;-42
2022/07/13 05:36:45;;;;;;;7.82;5.03;;;16.40;63.70;;;;;;5050806;28;20196;-54
2022/07/13 05:39:15;;;;;;;8.73;5.55;;;16.40;63.60;;;;;;5050481;28;20209;-50
2022/07/13 05:41:48;;;;;;;7.72;5.50;;;16.40;63.60;;;;;;5050622;28;20202;-51
2022/07/13 05:44:19;;;;;;;7.32;5.07;;;16.40;63.70;;;;;;5050839;28;20230;-52
2022/07/13 05:46:49;;;;;;;8.80;6.00;;;16.30;63.60;;;;;;5051084;28;20235;-55
2022/07/13 05:49:20;;;;;;;19.13;10.45;;;16.30;63.60;;;;;;5050812;28;20226;-48
2022/07/13 05:51:51;;;;;;;11.65;7.78;;;16.40;64.10;;;;;;5050707;28;20207;-53
2022/07/13 05:54:22;;;;;;;14.75;8.55;;;16.40;64.10;;;;;;5050429;28;20910;-60
2022/07/13 05:56:54;;;;;;;14.50;8.27;;;16.30;64.00;;;;;;5050158;28;20195;-53
2022/07/13 05:59:25;;;;;;;11.38;7.45;;;16.40;64.00;;;;;;5050469;28;20219;-54
2022/07/13 06:01:55;;;;;;;12.32;8.02;;;16.40;64.00;;;;;;5050798;28;20192;-60
2022/07/13 06:04:26;;;;;;;13.05;8.30;;;16.40;64.00;;;;;;5050814;28;20226;-50
2022/07/13 06:06:57;;;;;;;11.55;8.40;;;16.30;64.00;;;;;;5050833;28;20202;-44
2022/07/13 06:09:27;;;;;;;11.70;7.57;;;16.30;64.00;;;;;;5050921;28;20220;-57
2022/07/13 06:12:00;;;;;;;12.40;8.55;;;16.30;63.90;;;;;;5050203;28;20199;-48
2022/07/13 06:14:31;;;;;;;15.18;8.25;;;16.30;63.90;;;;;;5050835;28;20199;-49
2022/07/13 06:17:01;;;;;;;12.98;8.00;;;16.30;63.80;;;;;;5050982;28;20655;-58
2022/07/13 06:19:36;;;;;;;13.98;7.80;;;16.30;63.80;;;;;;5050993;28;20828;-48
2022/07/13 06:22:06;;;;;;;13.38;7.80;;;16.30;63.80;;;;;;5050532;28;20199;-45
2022/07/13 06:24:37;;;;;;;12.93;7.68;;;16.30;63.80;;;;;;5049604;28;20238;-54
2022/07/13 06:27:10;;;;;;;14.02;8.23;;;16.20;63.70;;;;;;5049702;28;20191;-50
2022/07/13 06:29:40;;;;;;;11.57;7.50;;;16.20;63.60;;;;;;5050463;28;20222;-47
2022/07/13 06:32:11;;;;;;;11.57;7.72;;;16.20;63.60;;;;;;5050455;28;20284;-50
2022/07/13 06:34:42;;;;;;;10.63;7.53;;;16.20;63.60;;;;;;5050296;28;20248;-53
2022/07/13 06:37:13;;;;;;;9.88;7.22;;;16.20;63.70;;;;;;5049856;28;20203;-48
2022/07/13 06:39:43;;;;;;;14.88;8.57;;;16.20;63.60;;;;;;5049580;28;20222;-55
2022/07/13 06:42:16;;;;;;;11.82;7.68;;;16.20;63.60;;;;;;5049350;28;20199;-54
2022/07/13 06:44:46;;;;;;;11.25;7.93;;;16.20;63.60;;;;;;5049997;28;20215;-48
2022/07/13 06:47:17;;;;;;;10.10;6.97;;;16.10;63.50;;;;;;5050071;28;20195;-55
2022/07/13 06:49:48;;;;;;;10.27;6.95;;;16.10;63.40;;;;;;5050232;28;20234;-56
2022/07/13 06:52:18;;;;;;;14.65;7.60;;;16.10;63.40;;;;;;5049451;28;20210;-51
2022/07/13 06:54:49;;;;;;;12.05;7.22;;;16.10;63.40;;;;;;5049839;28;20196;-58
2022/07/13 06:57:22;;;;;;;10.52;7.30;;;16.00;63.30;;;;;;5049559;28;20591;-51
2022/07/13 06:59:52;;;;;;;12.30;7.95;;;16.10;63.30;;;;;;5049735;28;20220;-51
2022/07/13 07:02:23;;;;;;;10.00;7.43;;;16.00;63.20;;;;;;5049736;28;20191;-52
2022/07/13 07:04:54;;;;;;;10.50;7.07;;;16.00;63.20;;;;;;5049617;28;20227;-53
2022/07/13 07:07:25;;;;;;;11.25;7.07;;;16.00;63.20;;;;;;5049491;28;20647;-54
2022/07/13 07:09:56;;;;;;;10.52;7.20;;;16.00;63.30;;;;;;5049499;28;20216;-60
2022/07/13 07:12:28;;;;;;;10.50;7.13;;;16.00;63.30;;;;;;5049230;28;20196;-57
2022/07/13 07:14:59;;;;;;;12.23;7.05;;;16.00;63.40;;;;;;5049503;28;20195;-56
2022/07/13 07:17:30;;;;;;;10.65;6.35;;;16.00;63.30;;;;;;5049508;28;20557;-59
2022/07/13 07:20:03;;;;;;;12.35;7.28;;;15.90;63.30;;;;;;5050075;28;20702;-59
2022/07/13 07:22:34;;;;;;;11.07;6.47;;;15.90;63.20;;;;;;5048826;28;20201;-46
2022/07/13 07:25:05;;;;;;;12.60;6.72;;;15.90;63.20;;;;;;5048967;28;20694;-51
2022/07/13 07:27:38;;;;;;;9.30;6.28;;;15.90;63.20;;;;;;5049232;28;20536;-52
2022/07/13 07:30:10;;;;;;;9.60;6.88;;;15.90;63.20;;;;;;5049317;28;20231;-46
2022/07/13 07:32:40;;;;;;;10.68;7.05;;;15.90;63.20;;;;;;5049253;28;20196;-54
2022/07/13 07:35:12;;;;;;;10.82;7.18;;;15.90;63.20;;;;;;5051232;28;20257;-48
2022/07/13 07:37:43;;;;;;;12.30;7.35;;;15.90;63.30;;;;;;5053049;28;20199;-50
2022/07/13 07:40:14;;;;;;;10.32;6.65;;;15.90;63.30;;;;;;5053121;28;20222;-56
2022/07/13 07:42:47;;;;;;;11.43;7.07;;;15.90;63.30;;;;;;5053197;28;20200;-59
2022/07/13 07:45:18;;;;;;;10.38;6.60;;;15.90;63.30;;;;;;5053133;28;20230;-56
2022/07/13 07:47:49;;;;;;;11.30;7.32;;;15.80;63.30;;;;;;5053431;28;20206;-47
2022/07/13 07:50:19;;;;;;;10.95;7.45;;;15.80;63.40;;;;;;5053204;28;20219;-56
2022/07/13 07:52:51;;;;;;;10.88;6.90;;;15.80;63.40;;;;;;5053099;28;20226;-48
2022/07/13 07:55:23;;;;;;;10.82;6.78;;;15.80;63.40;;;;;;5053093;28;20290;-45
2022/07/13 07:57:55;;;;;;;11.73;7.50;;;15.80;63.40;;;;;;5052593;28;20192;-53
2022/07/13 08:00:26;;;;;;;8.85;5.95;;;15.80;63.40;;;;;;5052752;28;20223;-53
2022/07/13 08:03:02;;;;;;;9.65;7.10;;;15.80;63.30;;;;;;5052988;28;20207;-57
2022/07/13 08:05:33;;;;;;;9.82;6.78;;;15.80;63.30;;;;;;5053058;28;20227;-48
2022/07/13 08:08:04;;;;;;;12.52;6.78;;;15.80;63.30;;;;;;5052860;28;20677;-52
2022/07/13 08:10:35;;;;;;;9.82;6.25;;;15.80;63.30;;;;;;5052461;28;20284;-51
2022/07/13 08:13:08;;;;;;;9.82;6.80;;;15.80;63.30;;;;;;5052396;28;20192;-55
2022/07/13 08:15:39;;;;;;;9.82;6.35;;;15.70;63.30;;;;;;5052267;28;20196;-47
2022/07/13 08:18:10;;;;;;;9.45;6.53;;;15.70;63.40;;;;;;5052854;28;20192;-53
2022/07/13 08:20:40;;;;;;;8.13;6.47;;;15.70;63.30;;;;;;5053035;28;20227;-52
2022/07/13 08:25:54;;;;;;;9.20;6.18;;;15.70;63.30;;;;;;5051667;28;20610;-56
2022/07/13 08:28:27;;;;;;;9.88;6.20;;;15.70;63.30;;;;;;5051926;28;20197;-47
2022/07/13 08:30:58;;;;;;;9.77;6.57;;;15.70;63.30;;;;;;5052095;28;20192;-56
2022/07/13 08:38:34;;;;;;;9.60;7.15;;;15.70;63.30;;;;;;5052029;28;20195;-55
2022/07/13 08:39:17;;;;;;;9.00;6.47;;;15.70;63.20;;;;;;5051355;28;20578;-57
2022/07/13 08:41:47;;;;;;;9.65;6.03;;;15.60;63.20;;;;;;5051365;28;20282;-52
2022/07/13 08:44:20;;;;;;;8.55;6.32;;;15.60;63.20;;;;;;5050792;28;20223;-56
2022/07/13 08:46:52;;;;;;;10.45;6.43;;;15.60;63.30;;;;;;5051394;28;20717;-49
2022/07/13 08:49:25;;;;;;;11.00;7.10;;;15.60;63.30;;;;;;5052233;28;20215;-56
2022/07/13 08:51:58;;;;;;;8.55;5.90;;;15.60;63.40;;;;;;5052106;28;20203;-51
2022/07/13 08:54:29;;;;;;;8.75;6.05;;;15.60;63.30;;;;;;5052559;28;20780;-58
2022/07/13 08:57:00;;;;;;;8.13;5.70;;;15.50;63.20;;;;;;5052333;28;20196;-44
2022/07/13 08:59:33;;;;;;;9.15;6.35;;;15.60;63.30;;;;;;5031648;28;20243;-59
2022/07/13 09:02:03;;;;;;;8.52;6.55;;;15.50;63.30;;;;;;5031952;28;20196;-46
2022/07/13 09:04:35;;;;;;;10.18;6.43;;;15.50;63.30;;;;;;5032182;28;20223;-49
2022/07/13 09:07:06;;;;;;;9.02;6.95;;;15.50;63.20;;;;;;5031720;28;20208;-54
2022/07/13 09:09:38;;;;;;;8.95;6.20;;;15.50;63.30;;;;;;5031553;28;20217;-56
2022/07/13 09:12:17;;;;;;;9.07;6.45;;;15.50;63.30;;;;;;5039543;28;20644;-55
2022/07/13 09:14:54;;;;;;;9.15;6.60;;;15.50;63.30;;;;;;5031445;28;20199;-46
2022/07/13 09:17:38;;;;;;;9.95;6.18;;;15.50;64.10;;;;;;5031740;28;20192;-57
2022/07/13 09:20:25;;;;;;;8.27;6.25;;;15.40;63.20;;;;;;5043879;28;20222;-59
2022/07/13 09:22:57;;;;;;;8.48;6.15;;;15.40;63.30;;;;;;5056593;28;20655;-56
2022/07/13 09:25:35;;;;;;;9.20;6.18;;;15.40;63.20;;;;;;5051085;28;20219;-60
2022/07/13 09:28:07;;;;;;;8.02;5.63;;;15.40;63.20;;;;;;5051289;28;20195;-56
2022/07/13 09:30:45;;;;;;;9.93;6.03;;;15.40;63.20;;;;;;5051453;28;20219;-49
2022/07/13 09:33:16;;;;;;;8.32;6.00;;;15.40;63.20;;;;;;5051253;28;20195;-57
2022/07/13 09:35:50;;;;;;;9.98;6.13;;;15.40;63.20;;;;;;5051134;28;20187;-46
2022/07/13 09:38:35;;;;;;;8.30;6.05;;;15.30;63.10;;;;;;5050948;28;20195;-53
2022/07/13 09:41:24;;;;;;;7.85;5.78;;;15.30;63.20;;;;;;5051034;28;20199;-54
2022/07/13 09:46:58;;;;;;;8.20;6.00;;;15.30;63.10;;;;;;5051491;28;20334;-59
2022/07/13 09:49:38;;;;;;;8.32;6.03;;;15.30;63.20;;;;;;5051493;28;20571;-59
2022/07/13 09:52:10;;;;;;;7.53;5.65;;;15.30;63.20;;;;;;5051567;28;20195;-60
2022/07/13 09:54:43;;;;;;;7.75;5.20;;;15.20;63.20;;;;;;5050833;28;20210;-58
2022/07/13 09:57:17;;;;;;;8.68;6.57;;;15.20;63.20;;;;;;5050784;28;20215;-50
2022/07/13 09:59:49;;;;;;;8.75;6.30;;;15.20;63.20;;;;;;5050114;28;20222;-58
2022/07/13 10:02:22;;;;;;;9.57;6.35;;;15.20;63.20;;;;;;5051167;28;20682;-49
2022/07/13 10:04:54;;;;;;;8.88;6.03;;;15.20;63.10;;;;;;5051051;28;20249;-54
2022/07/13 10:07:25;;;;;;;10.63;6.10;;;15.20;63.20;;;;;;5050772;28;20195;-51
2022/07/13 10:09:57;;;;;;;7.60;5.43;;;15.10;63.10;;;;;;5050827;28;20215;-49
2022/07/13 10:12:28;;;;;;;8.50;6.38;;;15.10;63.10;;;;;;5050806;28;20237;-51
2022/07/13 10:14:59;;;;;;;7.68;5.22;;;15.10;63.20;;;;;;5030918;28;20188;-57
2022/07/13 10:17:31;;;;;;;8.02;5.88;;;15.10;63.20;;;;;;5031234;28;20196;-55
2022/07/13 10:20:10;;;;;;;7.25;5.22;;;15.10;63.20;;;;;;5031283;28;20227;-46
2022/07/13 10:22:47;;;;;;;9.10;5.40;;;15.10;63.30;;;;;;5050314;28;20202;-50
2022/07/13 10:25:20;;;;;;;8.63;5.85;;;15.10;63.20;;;;;;5050764;28;20312;-49
2022/07/13 10:28:07;;;;;;;8.38;5.85;;;15.10;63.20;;;;;;5050563;28;20198;-55
2022/07/13 10:30:38;;;;;;;8.65;5.93;;;15.00;63.10;;;;;;5050697;28;20227;-59
2022/07/13 10:33:24;;;;;;;7.63;5.25;;;15.00;63.10;;;;;;5050545;28;20570;-59
2022/07/13 10:35:58;;;;;;;8.65;5.63;;;15.00;63.10;;;;;;5050334;28;20279;-55
2022/07/13 10:38:29;;;;;;;7.80;5.55;;;15.00;63.10;;;;;;5050456;28;20274;-53
2022/07/13 10:41:23;;;;;;;8.18;5.18;;;15.00;63.10;;;;;;5050662;28;20210;-57
2022/07/13 10:44:05;;;;;;;9.27;5.75;;;15.00;63.20;;;;;;5032052;28;20291;-54
2022/07/13 10:46:50;;;;;;;8.00;5.32;;;14.90;63.10;;;;;;5050374;28;20310;-51
2022/07/13 10:49:45;;;;;;;6.63;5.35;;;14.90;63.20;;;;;;5048899;28;20230;-53
2022/07/13 10:52:53;;;;;;;6.95;5.00;;;14.90;63.20;;;;;;5049982;28;20218;-50
2022/07/13 10:55:34;;;;;;;7.40;5.78;;;14.90;63.10;;;;;;5050147;28;20195;-56
2022/07/13 10:58:37;;;;;;;7.75;4.93;;;14.90;63.10;;;;;;5049985;28;20195;-55
2022/07/13 11:01:40;;;;;;;6.70;4.85;;;14.80;63.10;;;;;;5050043;28;20197;-56
2022/07/13 11:04:12;;;;;;;7.03;5.20;;;14.80;63.10;;;;;;5049859;28;20239;-53
2022/07/13 11:06:44;;;;;;;8.40;5.07;;;14.80;63.10;;;;;;5049347;28;20227;-54
2022/07/13 11:09:23;;;;;;;6.53;5.40;;;14.80;63.10;;;;;;5049275;28;20254;-57
2022/07/13 11:11:54;;;;;;;7.60;5.03;;;14.80;63.10;;;;;;5049561;28;20205;-51
2022/07/13 11:14:49;;;;;;;8.77;5.68;;;14.80;63.20;;;;;;5049798;28;20207;-52
2022/07/13 11:17:21;;;;;;;6.72;5.28;;;14.80;63.20;;;;;;5049194;28;20272;-52
2022/07/13 11:20:09;;;;;;;6.80;4.93;;;14.80;63.20;;;;;;5049046;28;20234;-53
2022/07/13 11:25:55;;;;;;;7.70;5.55;;;14.70;63.10;;;;;;5050127;28;20226;-51
2022/07/13 11:28:33;;;;;;;7.00;5.13;;;14.70;63.10;;;;;;5049328;28;20191;-54
2022/07/13 11:31:08;;;;;;;7.63;5.25;;;14.70;63.10;;;;;;5049817;28;20547;-52
2022/07/13 11:33:38;;;;;;;7.07;4.93;;;14.70;63.10;;;;;;5049480;28;20283;-46
2022/07/13 11:36:10;;;;;;;7.28;4.97;;;14.70;63.10;;;;;;5049268;28;20183;-52
2022/07/13 11:38:43;;;;;;;7.75;5.25;;;14.70;63.10;;;;;;5049869;28;20550;-54
2022/07/13 11:41:21;;;;;;;6.95;5.35;;;14.70;63.10;;;;;;5049440;28;20199;-44
2022/07/13 11:43:53;;;;;;;7.28;5.22;;;14.60;63.10;;;;;;5049153;28;20202;-58
2022/07/13 11:46:27;;;;;;;5.72;4.93;;;14.60;63.10;;;;;;5049158;28;20230;-55
2022/07/13 11:49:08;;;;;;;7.60;4.72;;;14.70;63.20;;;;;;5049476;28;20226;-57
2022/07/13 11:51:39;;;;;;;7.38;4.53;;;14.60;63.20;;;;;;5049241;28;20741;-58
2022/07/13 11:54:16;;;;;;;7.07;5.03;;;14.60;63.10;;;;;;5049173;28;20196;-55
2022/07/13 11:56:51;;;;;;;5.90;4.28;;;14.60;63.10;;;;;;5049483;28;20206;-56
2022/07/13 11:59:38;;;;;;;6.10;4.20;;;14.60;63.00;;;;;;5049220;28;20222;-56
2022/07/13 12:02:10;;;;;;;7.43;4.43;;;14.60;63.00;;;;;;5049431;28;20604;-52
2022/07/13 12:04:43;;;;;;;6.03;4.70;;;14.60;63.00;;;;;;5049191;28;20210;-47
2022/07/13 12:07:16;;;;;;;6.38;4.53;;;14.60;63.00;;;;;;5049099;28;20572;-47
2022/07/13 12:09:57;;;;;;;6.65;4.85;;;14.60;63.00;;;;;;5049457;28;20216;-52
2022/07/13 12:12:30;;;;;;;7.82;4.95;;;14.60;63.00;;;;;;5049397;28;20196;-52
2022/07/13 12:15:01;;;;;;;7.20;4.43;;;14.50;63.00;;;;;;5048601;28;20198;-54
2022/07/13 12:17:42;;;;;;;5.95;4.30;;;14.50;63.00;;;;;;5048788;28;20191;-51
2022/07/13 12:20:14;;;;;;;6.32;4.88;;;14.50;63.00;;;;;;5048924;28;20228;-52
2022/07/13 12:22:52;;;;;;;6.72;4.22;;;14.50;63.10;;;;;;5031748;28;20199;-57
2022/07/13 12:25:33;;;;;;;5.78;4.35;;;14.50;63.00;;;;;;5032959;28;20255;-51
2022/07/13 12:28:04;;;;;;;6.28;4.57;;;14.50;63.00;;;;;;5032832;28;20239;-49
2022/07/13 12:30:37;;;;;;;8.45;4.82;;;14.50;62.90;;;;;;5050960;28;20222;-49
2022/07/13 12:33:09;;;;;;;7.22;4.97;;;14.50;63.00;;;;;;5052678;28;20199;-49
2022/07/13 12:35:41;;;;;;;6.82;4.57;;;14.50;63.00;;;;;;5052642;28;20525;-51
2022/07/13 12:38:14;;;;;;;5.72;4.63;;;14.40;62.90;;;;;;5052420;28;20337;-51
2022/07/13 12:40:49;;;;;;;5.13;3.72;;;14.50;63.00;;;;;;5051916;28;20271;-49
2022/07/13 12:43:21;;;;;;;6.53;4.70;;;14.40;62.90;;;;;;5052506;28;20206;-47
2022/07/13 12:45:53;;;;;;;6.85;4.57;;;14.40;62.90;;;;;;5052234;28;20416;-53
2022/07/13 12:48:25;;;;;;;5.32;4.35;;;14.40;62.90;;;;;;5052424;28;20206;-48
2022/07/13 12:51:00;;;;;;;8.02;4.63;;;14.40;63.00;;;;;;5052531;28;20230;-49
2022/07/13 12:53:48;;;;;;;5.53;4.20;;;14.40;63.00;;;;;;5052383;28;20211;-59
2022/07/13 12:56:23;;;;;;;5.75;4.18;;;14.40;63.00;;;;;;5052304;28;20200;-46
2022/07/13 12:58:55;;;;;;;6.30;4.22;;;14.40;62.90;;;;;;5051481;28;20651;-45
2022/07/13 13:01:32;;;;;;;6.00;4.20;;;14.40;62.90;;;;;;5051998;28;20222;-50
2022/07/13 13:04:04;;;;;;;5.30;4.25;;;14.40;62.90;;;;;;5052013;28;20195;-46
2022/07/13 13:06:35;;;;;;;5.75;4.20;;;14.40;62.80;;;;;;5051314;28;20597;-54
2022/07/13 13:09:06;;;;;;;5.78;4.32;;;14.30;62.70;;;;;;5051869;28;20583;-45
2022/07/13 13:11:39;;;;;;;5.28;4.03;;;14.30;62.70;;;;;;5051650;28;20198;-51
2022/07/13 13:14:14;;;;;;;5.97;3.97;;;14.30;62.80;;;;;;5051559;28;20199;-44
2022/07/13 13:16:45;;;;;;;5.78;4.00;;;14.30;63.20;;;;;;5051992;28;20195;-51
2022/07/13 13:19:15;;;;;;;7.13;4.40;;;14.30;62.70;;;;;;5051666;28;20706;-51
2022/07/13 13:21:46;;;;;;;5.03;4.00;;;14.30;62.70;;;;;;5052026;28;20207;-49
2022/07/13 13:24:17;;;;;;;6.32;4.40;;;14.30;62.70;;;;;;5050788;28;20199;-57
2022/07/13 13:26:49;;;;;;;4.95;3.83;;;14.30;62.70;;;;;;5050490;28;20231;-49